Time;durP1;ratioP1;P1;durP2;ratioP2;P2;SDS_P1;SDS_P2;PMS_P1;PMS_P2;Temp;Humidity;BMP_temperature;BMP_pressure;BME280_temperature;BME280_humidity;BME280_pressure;Samples;Min_cycle;Max_cycle;Signal;HPM_P1;HPM_P2
2023/12/03 00:03:54;;;;;;;68.43;41.50;;;;;;;-1.88;100.00;101505.84;10167192;29;20147;-89
2023/12/03 00:08:55;;;;;;;64.10;39.60;;;;;;;-1.83;100.00;101504.69;10165824;29;20047;-90
2023/12/03 00:13:56;;;;;;;64.15;38.53;;;;;;;-1.77;100.00;101505.34;10166045;29;20040;-89
2023/12/03 00:18:57;;;;;;;71.53;37.83;;;;;;;-1.77;100.00;101504.47;10166292;29;20524;-89
2023/12/03 00:23:57;;;;;;;72.50;45.53;;;;;;;-1.75;100.00;101505.53;10167220;29;20503;-90
2023/12/03 00:28:57;;;;;;;50.73;30.87;;;;;;;-1.74;100.00;101497.09;10147296;29;20115;-88
2023/12/03 00:33:58;;;;;;;68.23;37.07;;;;;;;-1.81;100.00;101502.31;10165062;29;20131;-89
2023/12/03 00:38:58;;;;;;;61.97;33.30;;;;;;;-2.05;100.00;101495.44;10164085;29;20432;-88
2023/12/03 00:43:59;;;;;;;63.73;36.63;;;;;;;-2.21;100.00;101504.03;10164767;29;20047;-82
2023/12/03 00:48:59;;;;;;;71.80;38.37;;;;;;;-2.36;100.00;101506.75;10163220;29;20134;-88
2023/12/03 00:54:00;;;;;;;73.13;41.50;;;;;;;-2.40;100.00;101504.59;10149580;29;20152;-86
2023/12/03 00:59:00;;;;;;;61.77;36.93;;;;;;;-2.54;100.00;101505.66;10131414;29;20464;-87
2023/12/03 01:04:01;;;;;;;75.40;39.43;;;;;;;-2.68;100.00;101523.72;10163999;29;20134;-89
2023/12/03 01:09:01;;;;;;;72.97;41.10;;;;;;;-2.88;100.00;101532.66;10147557;29;20514;-89
2023/12/03 01:14:03;;;;;;;70.90;38.53;;;;;;;-2.85;100.00;101519.25;10165264;29;20127;-88
2023/12/03 01:19:03;;;;;;;72.65;41.17;;;;;;;-2.80;100.00;101525.81;10163443;29;20040;-88
2023/12/03 01:24:04;;;;;;;74.63;40.73;;;;;;;-2.77;100.00;101533.84;10146246;29;20143;-89
2023/12/03 01:29:05;;;;;;;87.23;45.60;;;;;;;-2.84;100.00;101536.44;10162577;29;20048;-87
2023/12/03 01:34:05;;;;;;;54.97;31.83;;;;;;;-2.70;100.00;101535.44;10162208;29;20044;-87
2023/12/03 01:39:06;;;;;;;75.33;38.53;;;;;;;-2.64;100.00;101543.81;10164450;29;20276;-88
2023/12/03 01:44:06;;;;;;;81.13;41.50;;;;;;;-2.51;100.00;101548.63;10162802;29;20139;-88
2023/12/03 01:49:07;;;;;;;67.40;39.23;;;;;;;-2.33;100.00;101557.47;10163010;29;20040;-89
2023/12/03 01:54:08;;;;;;;66.10;40.47;;;;;;;-2.23;100.00;101561.94;10146339;29;20496;-89
2023/12/03 01:59:09;;;;;;;68.30;39.20;;;;;;;-2.12;100.00;101565.69;10160999;29;20485;-88
2023/12/03 02:04:09;;;;;;;58.73;33.87;;;;;;;-2.04;100.00;101569.09;10173788;29;20508;-88
2023/12/03 02:09:10;;;;;;;63.20;33.73;;;;;;;-1.99;100.00;101563.72;10160730;29;20107;-89
2023/12/03 02:14:10;;;;;;;70.37;36.53;;;;;;;-1.88;100.00;101558.84;10161075;29;20052;-88
2023/12/03 02:19:11;;;;;;;64.80;34.80;;;;;;;-1.84;100.00;101553.31;10162011;29;20127;-88
2023/12/03 02:24:11;;;;;;;56.90;31.97;;;;;;;-1.82;100.00;101559.50;10161927;29;20040;-89
2023/12/03 02:29:12;;;;;;;57.57;33.60;;;;;;;-1.82;100.00;101555.28;10145229;29;20608;-88
2023/12/03 02:34:13;;;;;;;56.93;35.00;;;;;;;-1.86;100.00;101558.25;10159674;29;20050;-88
2023/12/03 02:39:13;;;;;;;53.27;31.40;;;;;;;-1.80;100.00;101563.16;10145737;29;20040;-87
2023/12/03 02:44:14;;;;;;;60.93;33.23;;;;;;;-1.81;100.00;101564.78;10161589;29;20127;-88
2023/12/03 02:49:14;;;;;;;59.30;34.80;;;;;;;-1.72;100.00;101553.69;10160106;29;20131;-87
2023/12/03 02:54:15;;;;;;;50.93;30.93;;;;;;;-1.74;100.00;101558.69;10160828;29;20441;-88
2023/12/03 02:59:15;;;;;;;53.37;30.93;;;;;;;-1.66;100.00;101552.72;10143826;29;20119;-89
2023/12/03 03:04:16;;;;;;;53.70;32.60;;;;;;;-1.64;100.00;101547.75;10159547;29;20099;-88
2023/12/03 03:09:16;;;;;;;66.00;34.20;;;;;;;-1.65;100.00;101549.41;10143503;29;20073;-87
2023/12/03 03:14:17;;;;;;;56.97;33.03;;;;;;;-1.69;100.00;101546.34;10160676;29;20099;-87
2023/12/03 03:19:17;;;;;;;56.87;32.93;;;;;;;-1.66;100.00;101551.78;10159914;29;20044;-85
2023/12/03 03:24:18;;;;;;;51.65;28.65;;;;;;;-1.76;100.00;101557.63;10174111;29;20564;-88
2023/12/03 03:29:18;;;;;;;62.40;31.90;;;;;;;-1.78;100.00;101567.69;10159935;29;20499;-88
2023/12/03 03:34:19;;;;;;;56.50;31.43;;;;;;;-1.72;100.00;101570.03;10140179;29;20103;-88
2023/12/03 03:39:19;;;;;;;60.57;35.63;;;;;;;-1.68;100.00;101571.25;10157625;29;20130;-88
2023/12/03 03:44:20;;;;;;;44.30;30.40;;;;;;;-1.71;100.00;101573.50;10158391;29;20126;-88
2023/12/03 03:49:20;;;;;;;55.03;30.50;;;;;;;-1.75;100.00;101571.34;10142986;29;20139;-88
2023/12/03 03:54:21;;;;;;;58.40;30.00;;;;;;;-1.77;100.00;101569.53;10158457;29;20127;-88
2023/12/03 03:59:21;;;;;;;64.23;34.47;;;;;;;-1.82;100.00;101577.47;10159401;29;20087;-89
2023/12/03 04:04:22;;;;;;;55.63;28.90;;;;;;;-1.86;100.00;101573.66;10160642;29;20055;-89
2023/12/03 04:09:22;;;;;;;47.57;31.33;;;;;;;-1.95;100.00;101567.53;10159871;29;20131;-89
2023/12/03 04:14:23;;;;;;;52.10;26.27;;;;;;;-2.16;100.00;101571.22;10157655;29;20539;-89
2023/12/03 04:19:23;;;;;;;47.90;28.67;;;;;;;-2.28;100.00;101575.91;10143371;29;20036;-88
2023/12/03 04:24:24;;;;;;;57.97;27.60;;;;;;;-2.40;100.00;101578.94;10164262;29;20123;-89
2023/12/03 04:29:24;;;;;;;53.40;30.87;;;;;;;-2.30;100.00;101586.00;10165271;29;20159;-89
2023/12/03 04:34:25;;;;;;;56.13;30.37;;;;;;;-2.31;100.00;101597.00;10164663;29;20127;-88
2023/12/03 04:39:25;;;;;;;54.47;27.47;;;;;;;-2.39;100.00;101596.13;10166775;29;20127;-89
2023/12/03 04:44:26;;;;;;;43.13;25.37;;;;;;;-2.70;100.00;101604.63;10166653;29;20125;-88
2023/12/03 04:49:27;;;;;;;43.40;26.00;;;;;;;-2.88;100.00;101611.16;10163185;29;20404;-88
2023/12/03 04:54:27;;;;;;;61.37;30.47;;;;;;;-3.13;100.00;101616.97;10162150;29;20145;-88
2023/12/03 04:59:27;;;;;;;52.30;28.97;;;;;;;-3.36;100.00;101615.97;10162933;29;20064;-88
2023/12/03 05:04:28;;;;;;;54.77;29.83;;;;;;;-3.51;100.00;101608.34;10179573;28;20227;-89
2023/12/03 05:09:28;;;;;;;64.50;34.17;;;;;;;-3.53;100.00;101617.50;10159587;29;20544;-89
2023/12/03 05:14:29;;;;;;;51.97;30.63;;;;;;;-3.50;100.00;101609.25;10166025;29;20123;-88
2023/12/03 05:19:29;;;;;;;68.90;34.67;;;;;;;-3.60;100.00;101613.31;10163128;29;20123;-87
2023/12/03 05:24:30;;;;;;;62.83;34.57;;;;;;;-3.77;100.00;101621.59;10163083;29;20041;-87
2023/12/03 05:29:30;;;;;;;46.50;25.87;;;;;;;-3.75;100.00;101624.31;10162689;29;20127;-87
2023/12/03 05:34:31;;;;;;;64.33;32.03;;;;;;;-3.77;100.00;101636.00;10162601;29;20054;-87
2023/12/03 05:39:31;;;;;;;67.00;32.90;;;;;;;-3.95;100.00;101634.78;10163946;29;20511;-87
2023/12/03 05:44:32;;;;;;;65.30;33.87;;;;;;;-4.01;100.00;101646.09;10159639;29;20131;-86
2023/12/03 05:49:32;;;;;;;75.40;39.40;;;;;;;-3.91;100.00;101647.19;10159749;29;20495;-86
2023/12/03 05:54:33;;;;;;;64.73;36.30;;;;;;;-3.88;100.00;101658.69;10163001;29;20078;-86
2023/12/03 05:59:33;;;;;;;76.67;39.47;;;;;;;-3.70;100.00;101657.38;10161786;29;20381;-82
2023/12/03 06:04:34;;;;;;;77.57;37.13;;;;;;;-3.71;100.00;101654.63;10147048;29;20111;-86
2023/12/03 06:09:34;;;;;;;70.50;38.73;;;;;;;-3.65;100.00;101657.91;10161192;29;20076;-86
2023/12/03 06:14:35;;;;;;;71.97;38.10;;;;;;;-3.60;100.00;101661.03;10145775;29;20075;-86
2023/12/03 06:19:35;;;;;;;66.67;35.70;;;;;;;-3.74;100.00;101665.44;10160888;29;20048;-88
2023/12/03 06:24:36;;;;;;;76.23;42.00;;;;;;;-3.76;100.00;101660.84;10163410;29;20071;-87
2023/12/03 06:29:36;;;;;;;72.60;37.70;;;;;;;-3.67;100.00;101674.72;10161586;29;20073;-86
2023/12/03 06:34:39;;;;;;;85.93;41.80;;;;;;;-3.39;100.00;101670.28;10188604;29;20152;-85
2023/12/03 06:39:40;;;;;;;97.40;42.72;;;;;;;-3.12;100.00;101684.44;10156851;29;20040;-88
2023/12/03 06:44:40;;;;;;;88.77;45.03;;;;;;;-2.89;100.00;101681.06;10159470;29;20555;-87
2023/12/03 06:49:42;;;;;;;92.13;50.30;;;;;;;-2.68;100.00;101675.81;10139856;29;20131;-89
2023/12/03 06:54:42;;;;;;;70.87;38.43;;;;;;;-2.56;100.00;101666.06;10128220;29;20131;-84
2023/12/03 06:59:43;;;;;;;69.80;37.63;;;;;;;-2.64;100.00;101659.16;10154551;29;20271;-84
2023/12/03 07:04:43;;;;;;;59.80;34.70;;;;;;;-2.72;100.00;101657.38;10159609;29;20044;-85
2023/12/03 07:09:44;;;;;;;62.73;34.70;;;;;;;-2.81;100.00;101659.78;10155929;29;20127;-86
2023/12/03 07:14:45;;;;;;;78.47;34.50;;;;;;;-3.00;100.00;101660.25;10160769;29;20135;-84
2023/12/03 07:19:45;;;;;;;63.67;34.80;;;;;;;-3.14;100.00;101663.81;10160649;29;20714;-84
2023/12/03 07:24:46;;;;;;;50.93;27.30;;;;;;;-3.20;100.00;101670.78;10159761;29;20070;-83
2023/12/03 07:29:46;;;;;;;50.00;30.90;;;;;;;-3.37;100.00;101668.81;10156707;29;20155;-89
2023/12/03 07:34:47;;;;;;;59.60;33.03;;;;;;;-3.54;100.00;101674.53;10159520;29;20204;-88
2023/12/03 07:39:47;;;;;;;57.40;29.27;;;;;;;-3.65;100.00;101688.63;10142620;29;20048;-87
2023/12/03 07:44:48;;;;;;;58.20;35.53;;;;;;;-3.39;100.00;101680.50;10143164;29;20047;-87
2023/12/03 07:49:49;;;;;;;60.77;30.97;;;;;;;-3.38;100.00;101687.47;10156992;29;20082;-88
2023/12/03 07:54:49;;;;;;;64.27;32.67;;;;;;;-3.47;100.00;101687.31;10156317;29;20471;-89
2023/12/03 07:59:50;;;;;;;53.23;32.40;;;;;;;-3.29;100.00;101685.06;10164606;29;20055;-87
2023/12/03 08:04:50;;;;;;;49.60;31.60;;;;;;;-3.19;100.00;101687.03;10150346;29;20071;-89
2023/12/03 08:09:51;;;;;;;51.83;28.93;;;;;;;-3.08;100.00;101678.94;10163818;29;20459;-88
2023/12/03 08:14:52;;;;;;;57.03;29.60;;;;;;;-2.97;100.00;101683.66;10163503;29;20043;-88
2023/12/03 08:19:52;;;;;;;53.60;29.27;;;;;;;-2.74;100.00;101687.94;10166248;29;20111;-86
2023/12/03 08:24:54;;;;;;;51.13;25.23;;;;;;;-2.62;100.00;101678.19;10160932;29;20138;-88
2023/12/03 08:29:55;;;;;;;46.47;29.77;;;;;;;-2.54;100.00;101677.41;10160617;29;20055;-90
2023/12/03 08:34:57;;;;;;;48.87;29.53;;;;;;;-2.54;100.00;101684.16;10157542;29;20136;-87
2023/12/03 08:39:59;;;;;;;49.17;28.67;;;;;;;-2.52;100.00;101677.56;10161467;29;20044;-87
2023/12/03 08:44:59;;;;;;;41.00;27.67;;;;;;;-2.53;100.00;101675.72;10143999;29;20115;-88
2023/12/03 08:50:00;;;;;;;49.30;28.17;;;;;;;-2.44;100.00;101679.31;10158085;29;20044;-84
2023/12/03 08:55:02;;;;;;;48.43;24.57;;;;;;;-2.45;100.00;101677.50;10153584;29;20123;-85
2023/12/03 09:00:07;;;;;;;47.90;25.20;;;;;;;-2.53;100.00;101688.53;10152317;29;20868;-82
2023/12/03 09:05:08;;;;;;;37.10;25.60;;;;;;;-2.31;100.00;101693.53;10157166;29;20044;-88
2023/12/03 09:10:09;;;;;;;39.10;25.67;;;;;;;-2.09;100.00;101696.84;10150511;29;20062;-84
2023/12/03 09:15:10;;;;;;;47.60;26.13;;;;;;;-1.83;100.00;101686.00;10139175;29;20055;-84
2023/12/03 09:20:10;;;;;;;39.33;22.43;;;;;;;-1.64;100.00;101683.78;10134012;29;20183;-84
2023/12/03 09:25:11;;;;;;;44.53;24.57;;;;;;;-1.53;100.00;101678.19;10154641;29;20115;-87
2023/12/03 09:30:12;;;;;;;37.70;19.70;;;;;;;-1.35;100.00;101691.19;10167457;29;20086;-91
2023/12/03 09:35:12;;;;;;;20.85;14.82;;;;;;;-1.19;100.00;101686.97;10164812;29;20113;-86
2023/12/03 09:40:13;;;;;;;23.37;12.10;;;;;;;-1.07;100.00;101691.59;10140054;29;20052;-89
2023/12/03 09:45:14;;;;;;;31.00;17.93;;;;;;;-0.82;100.00;101691.66;10145103;29;20552;-85
2023/12/03 09:50:15;;;;;;;25.77;14.82;;;;;;;-0.61;100.00;101695.63;10143751;29;20572;-88
2023/12/03 09:55:16;;;;;;;30.03;16.83;;;;;;;-0.45;100.00;101716.13;10140899;29;20032;-87
2023/12/03 10:00:16;;;;;;;25.40;17.20;;;;;;;-0.26;100.00;101708.69;10121999;29;20048;-88
2023/12/03 10:05:17;;;;;;;29.30;14.45;;;;;;;0.06;100.00;101713.72;10149497;29;20099;-89
2023/12/03 10:10:18;;;;;;;24.25;12.45;;;;;;;0.22;100.00;101731.63;10134513;29;20565;-86
2023/12/03 10:15:19;;;;;;;23.60;14.07;;;;;;;0.37;100.00;101726.22;10158460;29;20052;-92
2023/12/03 10:20:26;;;;;;;24.27;13.88;;;;;;;0.64;100.00;101737.53;10155550;29;20044;-83
2023/12/03 10:25:31;;;;;;;29.83;13.98;;;;;;;1.06;100.00;101741.72;10167219;29;20063;-88
2023/12/03 10:30:32;;;;;;;23.55;14.70;;;;;;;1.35;100.00;101738.53;10137479;29;20040;-87
2023/12/03 10:35:34;;;;;;;20.92;13.70;;;;;;;1.74;100.00;101741.50;10126948;29;20396;-87
2023/12/03 10:40:35;;;;;;;;;;;;;;;2.08;100.00;101738.72;10141682;29;20044;-87
2023/12/03 10:45:35;;;;;;;23.65;13.68;;;;;;;2.69;100.00;101753.03;10151481;29;19927;-86
2023/12/03 10:50:36;;;;;;;21.42;12.20;;;;;;;2.63;100.00;101757.63;10137067;29;20046;-85
2023/12/03 10:55:37;;;;;;;22.38;15.18;;;;;;;2.18;100.00;101762.06;10150610;29;20095;-90
2023/12/03 11:00:41;;;;;;;20.77;13.63;;;;;;;2.21;100.00;101751.09;10138893;29;20043;-87
2023/12/03 11:05:54;;;;;;;19.70;11.38;;;;;;;2.24;100.00;101754.00;10137611;29;20040;-89
2023/12/03 11:10:56;;;;;;;24.63;12.15;;;;;;;2.44;100.00;101736.88;10135607;29;20036;-86
2023/12/03 11:15:57;;;;;;;22.08;13.27;;;;;;;2.88;100.00;101732.38;10149666;29;20040;-84
2023/12/03 11:21:05;;;;;;;20.83;12.65;;;;;;;3.02;100.00;101710.38;10139309;29;20484;-88
2023/12/03 11:26:12;;;;;;;21.20;11.63;;;;;;;3.50;100.00;101734.50;10150835;29;20043;-88
2023/12/03 11:31:12;;;;;;;24.42;13.63;;;;;;;2.81;100.00;101721.34;10158414;29;20130;-95
2023/12/03 11:36:13;;;;;;;24.80;14.27;;;;;;;2.47;100.00;101708.75;10156675;29;20047;-88
2023/12/03 11:41:13;;;;;;;27.73;13.63;;;;;;;2.95;100.00;101692.50;10145907;29;20134;-91
2023/12/03 11:46:14;;;;;;;22.20;13.27;;;;;;;3.12;100.00;101700.88;10139364;29;20044;-84
2023/12/03 11:51:14;;;;;;;17.70;12.02;;;;;;;2.68;100.00;101691.75;10136287;29;20051;-85
2023/12/03 11:56:16;;;;;;;20.73;12.00;;;;;;;2.46;100.00;101679.44;10157874;29;20111;-87
2023/12/03 12:01:17;;;;;;;23.35;13.13;;;;;;;2.27;100.00;101688.81;10125778;29;20146;-87
2023/12/03 12:06:27;;;;;;;21.73;14.38;;;;;;;2.28;100.00;101663.09;10155993;29;20469;-88
2023/12/03 12:11:27;;;;;;;23.98;14.27;;;;;;;2.64;100.00;101663.81;10156068;29;20535;-90
2023/12/03 12:16:29;;;;;;;21.33;11.82;;;;;;;2.71;100.00;101645.50;10131868;29;20075;-89
2023/12/03 12:21:30;;;;;;;25.67;13.93;;;;;;;2.36;100.00;101666.41;10136595;29;20500;-93
2023/12/03 12:26:30;;;;;;;21.48;13.00;;;;;;;1.85;100.00;101643.53;10127316;29;20052;-93
2023/12/03 12:31:31;;;;;;;21.17;15.02;;;;;;;1.82;100.00;101646.75;10138167;29;20079;-91
2023/12/03 12:36:31;;;;;;;20.90;10.68;;;;;;;2.10;100.00;101631.31;10124757;29;20127;-84
2023/12/03 12:41:38;;;;;;;24.08;13.82;;;;;;;1.93;100.00;101627.13;10156706;29;20118;-83
2023/12/03 12:46:59;;;;;;;26.90;14.40;;;;;;;1.92;100.00;101638.19;10146902;29;20045;-82
2023/12/03 12:52:13;;;;;;;20.65;12.65;;;;;;;1.77;100.00;101637.69;10159661;29;20448;-86
2023/12/03 12:57:14;;;;;;;22.73;12.75;;;;;;;1.52;100.00;101625.00;10161613;29;20060;-85
2023/12/03 13:02:18;;;;;;;19.42;12.50;;;;;;;1.30;100.00;101634.91;10131706;29;20044;-83
2023/12/03 13:07:19;;;;;;;22.20;12.38;;;;;;;1.31;100.00;101628.97;10154487;29;20037;-84
2023/12/03 13:12:20;;;;;;;25.90;14.40;;;;;;;1.37;100.00;101632.16;10156596;29;20036;-87
2023/12/03 13:17:21;;;;;;;21.10;12.63;;;;;;;1.41;100.00;101631.69;10148667;29;20046;-85
2023/12/03 13:22:21;;;;;;;23.58;14.23;;;;;;;1.39;100.00;101620.31;10145200;29;20044;-84
2023/12/03 13:27:22;;;;;;;19.92;13.00;;;;;;;1.27;100.00;101616.53;10132597;29;20080;-84
2023/12/03 13:32:23;;;;;;;21.38;12.90;;;;;;;1.21;100.00;101603.06;10150691;29;20167;-84
2023/12/03 13:37:24;;;;;;;21.52;13.30;;;;;;;1.25;100.00;101595.78;10127422;29;20401;-84
2023/12/03 13:42:25;;;;;;;19.58;12.07;;;;;;;1.23;100.00;101592.16;10148345;29;20047;-88
2023/12/03 13:47:26;;;;;;;21.40;13.63;;;;;;;1.23;100.00;101584.41;10153990;29;20382;-92
2023/12/03 13:52:27;;;;;;;18.52;9.52;;;;;;;1.20;100.00;101578.97;10141872;29;20045;-88
2023/12/03 13:57:27;;;;;;;17.00;11.30;;;;;;;1.19;100.00;101577.13;10158425;29;20041;-86
2023/12/03 14:02:28;;;;;;;23.50;12.48;;;;;;;1.19;100.00;101584.88;10141777;29;20128;-90
2023/12/03 14:07:29;;;;;;;23.23;12.07;;;;;;;1.15;100.00;101586.22;10149270;29;20477;-84
2023/12/03 14:12:29;;;;;;;19.65;13.13;;;;;;;1.17;100.00;101591.56;10150325;29;20075;-86
2023/12/03 14:17:30;;;;;;;20.40;12.27;;;;;;;1.04;100.00;101586.84;10146683;29;20201;-91
2023/12/03 14:22:31;;;;;;;17.53;13.53;;;;;;;0.99;100.00;101585.50;10159331;29;20040;-88
2023/12/03 14:27:31;;;;;;;18.73;10.45;;;;;;;0.94;100.00;101577.34;10144305;29;20330;-88
2023/12/03 14:32:32;;;;;;;22.48;13.07;;;;;;;0.93;100.00;101578.09;10143171;29;20055;-91
2023/12/03 14:37:32;;;;;;;23.27;12.90;;;;;;;0.91;100.00;101566.72;10151476;29;20052;-94
2023/12/03 14:42:33;;;;;;;19.95;11.90;;;;;;;0.91;100.00;101565.78;10161787;29;20059;-94
2023/12/03 14:47:34;;;;;;;21.75;12.55;;;;;;;0.84;100.00;101572.94;10140698;29;20127;-83
2023/12/03 14:52:35;;;;;;;27.35;14.55;;;;;;;0.76;100.00;101567.78;10161712;29;20389;-82
2023/12/03 14:57:35;;;;;;;19.73;12.15;;;;;;;0.78;100.00;101567.16;10148288;29;20130;-85
2023/12/03 15:02:36;;;;;;;18.88;12.40;;;;;;;0.68;100.00;101561.88;10158383;29;20109;-82
2023/12/03 15:07:36;;;;;;;22.40;12.02;;;;;;;0.65;100.00;101556.41;10159154;29;20449;-83
2023/12/03 15:12:37;;;;;;;24.65;11.65;;;;;;;0.65;100.00;101554.75;10150621;29;20036;-85
2023/12/03 15:17:38;;;;;;;25.38;14.82;;;;;;;0.63;100.00;101557.94;10147192;29;20459;-89
2023/12/03 15:22:39;;;;;;;21.95;12.85;;;;;;;0.61;100.00;101555.22;10140826;29;20056;-83
2023/12/03 15:27:39;;;;;;;27.23;15.68;;;;;;;0.52;100.00;101560.34;10125924;29;20052;-84
2023/12/03 15:32:40;;;;;;;26.15;15.27;;;;;;;0.38;100.00;101555.50;10144601;29;20119;-84
2023/12/03 15:37:40;;;;;;;26.42;15.68;;;;;;;0.32;100.00;101530.06;10154359;29;20127;-83
2023/12/03 15:42:41;;;;;;;29.30;15.15;;;;;;;0.26;100.00;101526.88;10128276;29;20135;-84
2023/12/03 15:47:41;;;;;;;48.72;15.25;;;;;;;0.11;100.00;101508.22;10143716;29;20131;-84
2023/12/03 15:52:42;;;;;;;27.83;18.23;;;;;;;0.05;100.00;101502.47;10130304;29;20119;-83
2023/12/03 15:57:42;;;;;;;27.90;15.10;;;;;;;-0.07;100.00;101491.88;10150981;29;20171;-84
2023/12/03 16:02:43;;;;;;;26.77;17.25;;;;;;;-0.08;100.00;101488.38;10148475;29;20501;-84
2023/12/03 16:07:44;;;;;;;30.77;18.30;;;;;;;-0.18;100.00;101480.47;10133342;29;20045;-84
2023/12/03 16:12:45;;;;;;;26.08;15.65;;;;;;;-0.18;100.00;101472.75;10122236;29;20523;-85
2023/12/03 16:17:45;;;;;;;32.72;16.65;;;;;;;-0.33;100.00;101475.59;10152778;29;20123;-84
2023/12/03 16:22:49;;;;;;;31.73;17.55;;;;;;;-0.40;100.00;101456.84;10163381;29;20060;-83
2023/12/03 16:27:50;;;;;;;32.60;17.90;;;;;;;-0.48;100.00;101445.75;10159682;29;20044;-84
2023/12/03 16:32:52;;;;;;;26.98;16.75;;;;;;;-0.55;100.00;101435.59;10155616;29;20067;-84
2023/12/03 16:37:54;;;;;;;28.83;16.92;;;;;;;-0.75;100.00;101430.28;10144916;29;20404;-84
2023/12/03 16:42:54;;;;;;;35.10;19.75;;;;;;;-0.90;100.00;101428.72;10160479;29;20480;-83
2023/12/03 16:47:55;;;;;;;33.47;21.80;;;;;;;-1.00;100.00;101418.22;10132630;29;20139;-83
2023/12/03 16:52:58;;;;;;;39.20;20.80;;;;;;;-1.09;100.00;101413.97;10177325;29;20051;-84
2023/12/03 16:57:59;;;;;;;39.00;23.73;;;;;;;-1.16;100.00;101405.47;10161731;29;20059;-91
2023/12/03 17:02:59;;;;;;;27.87;21.30;;;;;;;-1.18;100.00;101402.75;10134470;29;20066;-86
2023/12/03 17:08:02;;;;;;;43.97;24.07;;;;;;;-1.21;100.00;101400.75;10146638;29;20051;-85
2023/12/03 17:13:02;;;;;;;45.22;26.63;;;;;;;-1.25;100.00;101395.16;10160575;29;20047;-84
2023/12/03 17:18:04;;;;;;;47.13;28.87;;;;;;;-1.26;100.00;101388.19;10148015;29;20076;-84
2023/12/03 17:23:07;;;;;;;44.40;27.15;;;;;;;-1.30;100.00;101386.97;10155150;29;20044;-84
2023/12/03 17:28:07;;;;;;;41.10;27.02;;;;;;;-1.31;100.00;101387.72;10133400;29;20040;-84
2023/12/03 17:33:08;;;;;;;37.77;25.00;;;;;;;-1.36;100.00;101378.63;10151905;29;20555;-83
2023/12/03 17:38:08;;;;;;;47.13;28.03;;;;;;;-1.36;100.00;101376.97;10159436;29;20046;-83
2023/12/03 17:43:09;;;;;;;41.53;26.87;;;;;;;-1.42;100.00;101370.28;10145854;29;20374;-83
2023/12/03 17:48:10;;;;;;;52.33;31.20;;;;;;;-1.45;100.00;101369.97;10152624;29;20040;-83
2023/12/03 17:53:11;;;;;;;46.58;27.33;;;;;;;-1.48;100.00;101353.50;10160171;29;20572;-82
2023/12/03 17:58:13;;;;;;;40.57;24.83;;;;;;;-1.53;100.00;101344.41;10158147;29;20127;-83
2023/12/03 18:03:14;;;;;;;;;;;;;;;-1.54;100.00;101350.28;10158736;29;20168;-84
2023/12/03 18:08:15;;;;;;;35.40;20.52;;;;;;;-1.54;100.00;101342.59;10154105;29;19923;-89
2023/12/03 18:13:16;;;;;;;36.17;20.90;;;;;;;-1.54;100.00;101334.88;10156957;29;20524;-86
2023/12/03 18:18:16;;;;;;;34.65;20.67;;;;;;;-1.57;100.00;101331.09;10155178;29;20436;-87
2023/12/03 18:23:17;;;;;;;33.20;21.17;;;;;;;-1.59;100.00;101317.19;10153139;29;20107;-88
2023/12/03 18:28:18;;;;;;;39.57;23.27;;;;;;;-1.63;100.00;101316.88;10144844;29;20097;-83
2023/12/03 18:33:19;;;;;;;47.87;29.50;;;;;;;-1.63;100.00;101309.19;10154261;29;20040;-90
2023/12/03 18:38:19;;;;;;;56.03;35.30;;;;;;;-1.67;100.00;101304.47;10161698;29;20883;-92
2023/12/03 18:43:20;;;;;;;54.77;32.23;;;;;;;-1.71;100.00;101288.59;10146914;29;20152;-94
2023/12/03 18:48:20;;;;;;;61.63;33.67;;;;;;;-1.74;100.00;101288.28;10139798;29;20507;-84
2023/12/03 18:53:21;;;;;;;52.07;36.33;;;;;;;-1.78;100.00;101269.09;10133677;29;20127;-90
2023/12/03 18:58:21;;;;;;;69.27;43.27;;;;;;;-1.82;100.00;101257.59;10155157;29;20567;-90
2023/12/03 19:03:22;;;;;;;65.60;41.10;;;;;;;-1.78;100.00;101264.84;10131445;29;20052;-87
2023/12/03 19:08:24;;;;;;;65.70;39.87;;;;;;;-1.77;100.00;101240.13;10137028;29;20496;-89
2023/12/03 19:13:25;;;;;;;;;;;;;;;-1.81;100.00;101228.63;10142441;29;20043;-92
2023/12/03 19:18:27;;;;;;;71.28;44.55;;;;;;;-1.78;100.00;101230.59;10171558;29;20399;-87
2023/12/03 19:23:28;;;;;;;85.97;52.88;;;;;;;-1.81;100.00;101231.19;10134564;29;20107;-83
2023/12/03 19:28:28;;;;;;;62.50;37.53;;;;;;;-1.86;100.00;101227.22;10136440;29;20435;-84
2023/12/03 19:33:29;;;;;;;76.23;47.50;;;;;;;-1.83;100.00;101216.41;10150545;29;20052;-83
2023/12/03 19:38:30;;;;;;;73.63;46.80;;;;;;;-1.81;100.00;101220.03;10152459;29;20540;-86
2023/12/03 19:43:30;;;;;;;56.53;35.83;;;;;;;-1.80;100.00;101212.47;10164487;29;20142;-86
2023/12/03 19:48:31;;;;;;;82.33;49.83;;;;;;;-1.78;100.00;101205.84;10150563;29;20064;-87
2023/12/03 19:53:32;;;;;;;81.13;52.40;;;;;;;-1.79;100.00;101195.44;10154822;29;20045;-87
2023/12/03 19:58:32;;;;;;;73.03;42.67;;;;;;;-1.74;100.00;101189.09;10162373;29;20123;-87
2023/12/03 20:03:34;;;;;;;54.47;34.87;;;;;;;-1.79;100.00;101191.19;10157191;29;20395;-89
2023/12/03 20:08:35;;;;;;;77.40;46.85;;;;;;;-1.77;100.00;101193.94;10160645;29;20042;-89
2023/12/03 20:13:36;;;;;;;75.73;46.20;;;;;;;-1.75;100.00;101192.41;10145945;29;20044;-87
2023/12/03 20:18:36;;;;;;;77.27;49.60;;;;;;;-1.69;100.00;101185.34;10143058;29;20052;-86
2023/12/03 20:23:37;;;;;;;76.73;49.03;;;;;;;-1.69;100.00;101177.66;10160449;29;20055;-88
2023/12/03 20:28:37;;;;;;;72.77;50.33;;;;;;;-1.67;100.00;101175.22;10144155;29;20572;-85
2023/12/03 20:33:38;;;;;;;74.27;45.07;;;;;;;-1.67;100.00;101175.22;10160146;29;20151;-85
2023/12/03 20:38:39;;;;;;;66.30;44.47;;;;;;;-1.69;100.00;101177.66;10158378;29;20070;-87
2023/12/03 20:43:40;;;;;;;75.20;44.73;;;;;;;-1.66;100.00;101175.41;10143263;29;20268;-90
2023/12/03 20:48:41;;;;;;;63.30;37.87;;;;;;;-1.66;100.00;101157.44;10141145;29;20037;-83
2023/12/03 20:53:42;;;;;;;68.10;39.90;;;;;;;-1.65;100.00;101145.47;10157589;29;20080;-83
2023/12/03 20:58:42;;;;;;;71.47;41.23;;;;;;;-1.67;100.00;101127.38;10143456;29;20036;-85
2023/12/03 21:03:43;;;;;;;63.73;42.07;;;;;;;-1.76;100.00;101113.63;10141120;29;20048;-84
2023/12/03 21:08:44;;;;;;;64.47;39.57;;;;;;;-1.71;100.00;101121.75;10141366;29;20040;-85
2023/12/03 21:13:45;;;;;;;66.45;38.42;;;;;;;-1.75;100.00;101120.56;10124192;29;20040;-87
2023/12/03 21:18:46;;;;;;;67.37;37.97;;;;;;;-1.72;100.00;101107.13;10126178;29;20040;-92
2023/12/03 21:23:46;;;;;;;66.33;38.60;;;;;;;-1.64;100.00;101085.69;10142882;29;20056;-92
2023/12/03 21:28:47;;;;;;;59.10;37.77;;;;;;;-1.64;100.00;101078.00;10141012;29;20040;-93
2023/12/03 21:33:47;;;;;;;58.63;38.70;;;;;;;-1.75;100.00;101069.25;10162443;29;20138;-92
2023/12/03 21:38:48;;;;;;;63.50;35.10;;;;;;;-1.85;100.00;101069.97;10180754;29;20072;-88
2023/12/03 21:43:48;;;;;;;55.40;32.43;;;;;;;-1.86;100.00;101051.84;10164727;29;20385;-94
2023/12/03 21:48:49;;;;;;;57.03;32.83;;;;;;;-1.98;100.00;101054.09;10162264;29;20139;-91
2023/12/03 21:53:49;;;;;;;53.83;35.60;;;;;;;-2.16;100.00;101054.03;10159059;29;20040;-94
2023/12/03 21:58:50;;;;;;;60.27;35.20;;;;;;;-2.16;100.00;101055.72;10150130;29;20044;-90
2023/12/03 22:03:51;;;;;;;62.13;38.00;;;;;;;-2.19;100.00;101048.59;10141416;29;20043;-84
2023/12/03 22:08:51;;;;;;;71.73;43.10;;;;;;;-2.23;100.00;101043.91;10151956;29;20123;-82
2023/12/03 22:13:52;;;;;;;72.17;39.03;;;;;;;-2.24;100.00;101042.09;10176584;29;20136;-83
2023/12/03 22:18:53;;;;;;;62.38;40.22;;;;;;;-2.15;100.00;101042.13;10128855;29;20071;-82
2023/12/03 22:23:53;;;;;;;68.90;39.33;;;;;;;-2.17;100.00;101039.41;10161680;29;20132;-83